PWSweather.com
Personal Weather Stations
Station Observations
PITCARMI1
La Serra, CarmignanoIT 59015

La SerraCarmignanoIT 59015

Lat: 43.804429, Lon: 11.027222

Elevation: 525

Station Type: Davis Vantage Vue

http://www.meteocarmignano.it

Latest ConditionsUpdated 11:30:01 AM GMT+01:01 Friday, Nov 28, 2014
Currently Today's Max Today's Min Today's Average
Temperature 58.2°F14.6°C 58.2°F14.6°C 54.7°F12.6°C 55.9°F13.3°C
Dew Point 55.3°F12.9°C 55.3°F12.9°C 52.7°F11.5°C 53.5°F11.9°C
Winds Calm Calm 2.3 mph NW3.7 kmh NW - 0.3 mph 0.5 kmh
Wind Gusts -- 3.5 mph5.6 kmh - -
Humidity 90% 94% 90% 92%
Pressure 29.84 in1010.5 mb 29.89 in1012.2 mb 29.84 in1010.5 mb -
Precipitation - 0.08 in2.0 mm - -
Hour Temp Dew Point Humidity Winds Wind Gusts Pressure Precip Precip Rate Daily Precip Total
11:30 AM 58.2°F14.6°C 55.3°F12.9°C 90% Calm Calm -- 29.84 in1010.5 mb 0.00 in0.0 mm 0.00 in/hr0.0 mm/hr 0.08 in2.0 mm
11:00 AM 57.2°F14.0°C 54.6°F12.6°C 91% Calm Calm -- 29.86 in1011.2 mb 0.00 in0.0 mm 0.00 in/hr0.0 mm/hr 0.08 in2.0 mm
10:30 AM 56.7°F13.7°C 54.4°F12.4°C 92% Calm Calm -- 29.87 in1011.5 mb 0.01 in0.3 mm 0.02 in/hr0.5 mm/hr 0.08 in2.0 mm
10:00 AM 56.6°F13.7°C 54.0°F12.2°C 91% Calm Calm -- 29.87 in1011.5 mb 0.00 in0.0 mm 0.00 in/hr0.0 mm/hr 0.07 in1.8 mm
09:30 AM 56.6°F13.7°C 53.7°F12.1°C 90% Calm Calm -- 29.87 in1011.5 mb 0.00 in0.0 mm 0.00 in/hr0.0 mm/hr 0.07 in1.8 mm
09:00 AM 55.9°F13.3°C 53.3°F11.8°C 91% 1.2 mph WSW1.9 kmh WSW 2.3 mph3.7 kmh 29.87 in1011.5 mb 0.00 in0.0 mm 0.00 in/hr0.0 mm/hr 0.07 in1.8 mm
08:30 AM 55.7°F13.2°C 53.1°F11.7°C 91% 1.2 mph ENE1.9 kmh ENE 2.3 mph3.7 kmh 29.87 in1011.5 mb 0.00 in0.0 mm 0.00 in/hr0.0 mm/hr 0.07 in1.8 mm
08:00 AM 55.5°F13.1°C 52.9°F11.6°C 91% Calm Calm -- 29.86 in1011.2 mb 0.00 in0.0 mm 0.00 in/hr0.0 mm/hr 0.07 in1.8 mm
07:30 AM 54.7°F12.6°C 52.7°F11.5°C 93% Calm Calm -- 29.87 in1011.5 mb 0.00 in0.0 mm 0.00 in/hr0.0 mm/hr 0.07 in1.8 mm
07:00 AM 55.3°F12.9°C 52.7°F11.5°C 91% Calm Calm -- 29.86 in1011.2 mb 0.00 in0.0 mm 0.00 in/hr0.0 mm/hr 0.07 in1.8 mm
06:30 AM 55.9°F13.3°C 53.1°F11.7°C 90% Calm Calm 2.3 mph3.7 kmh 29.85 in1010.8 mb 0.00 in0.0 mm 0.00 in/hr0.0 mm/hr 0.07 in1.8 mm
06:00 AM 56.1°F13.4°C 53.2°F11.8°C 90% Calm Calm -- 29.85 in1010.8 mb 0.00 in0.0 mm 0.00 in/hr0.0 mm/hr 0.07 in1.8 mm
05:30 AM 56.2°F13.4°C 53.3°F11.8°C 90% 2.3 mph NW3.7 kmh NW 3.5 mph5.6 kmh 29.85 in1010.8 mb 0.00 in0.0 mm 0.00 in/hr0.0 mm/hr 0.07 in1.8 mm
05:00 AM 55.7°F13.2°C 53.4°F11.9°C 92% 1.2 mph NW1.9 kmh NW 2.3 mph3.7 kmh 29.85 in1010.8 mb 0.00 in0.0 mm 0.00 in/hr0.0 mm/hr 0.07 in1.8 mm
04:30 AM 55.6°F13.1°C 53.3°F11.8°C 92% 2.3 mph NW3.7 kmh NW 3.5 mph5.6 kmh 29.86 in1011.2 mb 0.00 in0.0 mm 0.00 in/hr0.0 mm/hr 0.07 in1.8 mm
04:00 AM 55.5°F13.1°C 53.5°F11.9°C 93% Calm Calm -- 29.86 in1011.2 mb 0.01 in0.3 mm 0.02 in/hr0.5 mm/hr 0.07 in1.8 mm
03:30 AM 55.7°F13.2°C 53.7°F12.1°C 93% Calm Calm 1.2 mph1.9 kmh 29.87 in1011.5 mb 0.00 in0.0 mm 0.00 in/hr0.0 mm/hr 0.06 in1.5 mm
03:00 AM 55.4°F13.0°C 53.4°F11.9°C 93% Calm Calm -- 29.87 in1011.5 mb 0.00 in0.0 mm 0.00 in/hr0.0 mm/hr 0.06 in1.5 mm
02:30 AM 55.4°F13.0°C 53.4°F11.9°C 93% Calm Calm -- 29.88 in1011.9 mb 0.00 in0.0 mm 0.00 in/hr0.0 mm/hr 0.06 in1.5 mm
02:00 AM 55.4°F13.0°C 53.5°F11.9°C 93% Calm Calm -- 29.87 in1011.5 mb 0.00 in0.0 mm 0.00 in/hr0.0 mm/hr 0.06 in1.5 mm
01:30 AM 55.3°F12.9°C 53.6°F12.0°C 94% Calm Calm -- 29.87 in1011.5 mb 0.00 in0.0 mm 0.00 in/hr0.0 mm/hr 0.06 in1.5 mm
01:00 AM 55.3°F12.9°C 53.3°F11.8°C 93% Calm Calm -- 29.88 in1011.9 mb 0.06 in1.5 mm 0.12 in/hr3.0 mm/hr 0.06 in1.5 mm
12:30 AM 55.7°F13.2°C 53.4°F11.9°C 92% Calm Calm 1.2 mph1.9 kmh 29.88 in1011.9 mb 0.00 in0.0 mm 0.00 in/hr0.0 mm/hr 0.00 in0.0 mm
12:00 AM 55.5°F13.1°C 53.5°F11.9°C 93% Calm Calm 1.2 mph1.9 kmh 29.89 in1012.2 mb 0.00 in0.0 mm 0.00 in/hr0.0 mm/hr 0.00 in0.0 mm